sensor_id;sensor_type;location;lat;lon;timestamp;temperature;humidity
14099;DHT22;7126;48.458;7.930;2022-08-04T00:00:11;25.60;99.90
14099;DHT22;7126;48.458;7.930;2022-08-04T00:08:15;25.40;99.90
14099;DHT22;7126;48.458;7.930;2022-08-04T00:10:48;25.30;99.90
14099;DHT22;7126;48.458;7.930;2022-08-04T00:13:15;25.30;99.90
14099;DHT22;7126;48.458;7.930;2022-08-04T00:15:49;25.30;99.90
14099;DHT22;7126;48.458;7.930;2022-08-04T00:18:16;25.30;99.90
14099;DHT22;7126;48.458;7.930;2022-08-04T00:20:44;25.30;99.90
14099;DHT22;7126;48.458;7.930;2022-08-04T00:23:10;25.20;99.90
14099;DHT22;7126;48.458;7.930;2022-08-04T00:25:39;25.10;99.90
14099;DHT22;7126;48.458;7.930;2022-08-04T00:28:06;25.10;99.90
14099;DHT22;7126;48.458;7.930;2022-08-04T00:30:31;25.10;99.90
14099;DHT22;7126;48.458;7.930;2022-08-04T00:32:57;25.00;99.90
14099;DHT22;7126;48.458;7.930;2022-08-04T00:35:24;25.00;99.90
14099;DHT22;7126;48.458;7.930;2022-08-04T00:37:51;25.10;99.90
14099;DHT22;7126;48.458;7.930;2022-08-04T00:43:17;24.90;99.90
14099;DHT22;7126;48.458;7.930;2022-08-04T00:59:33;24.80;99.90
14099;DHT22;7126;48.458;7.930;2022-08-04T01:02:09;24.80;99.90
14099;DHT22;7126;48.458;7.930;2022-08-04T01:10:02;24.70;99.90
14099;DHT22;7126;48.458;7.930;2022-08-04T01:22:01;24.60;99.90
14099;DHT22;7126;48.458;7.930;2022-08-04T01:30:03;24.80;99.90
14099;DHT22;7126;48.458;7.930;2022-08-04T01:32:47;24.70;99.90
14099;DHT22;7126;48.458;7.930;2022-08-04T01:40:13;24.60;99.90
14099;DHT22;7126;48.458;7.930;2022-08-04T01:42:41;24.50;99.90
14099;DHT22;7126;48.458;7.930;2022-08-04T01:45:08;24.50;99.90
14099;DHT22;7126;48.458;7.930;2022-08-04T01:47:36;24.40;99.90
14099;DHT22;7126;48.458;7.930;2022-08-04T01:50:07;24.40;99.90
14099;DHT22;7126;48.458;7.930;2022-08-04T01:52:35;24.40;99.90
14099;DHT22;7126;48.458;7.930;2022-08-04T01:55:09;24.40;99.90
14099;DHT22;7126;48.458;7.930;2022-08-04T01:57:47;24.30;99.90
14099;DHT22;7126;48.458;7.930;2022-08-04T02:00:16;24.40;99.90
14099;DHT22;7126;48.458;7.930;2022-08-04T02:02:44;24.40;99.90
14099;DHT22;7126;48.458;7.930;2022-08-04T02:05:13;24.40;99.90
14099;DHT22;7126;48.458;7.930;2022-08-04T02:07:44;24.40;99.90
14099;DHT22;7126;48.458;7.930;2022-08-04T02:10:28;24.50;99.90
14099;DHT22;7126;48.458;7.930;2022-08-04T02:13:04;24.30;99.90
14099;DHT22;7126;48.458;7.930;2022-08-04T02:15:36;24.30;99.90
14099;DHT22;7126;48.458;7.930;2022-08-04T02:18:12;24.20;99.90
14099;DHT22;7126;48.458;7.930;2022-08-04T02:20:45;24.10;99.90
14099;DHT22;7126;48.458;7.930;2022-08-04T02:23:15;24.00;99.90
14099;DHT22;7126;48.458;7.930;2022-08-04T02:25:59;24.00;99.90
14099;DHT22;7126;48.458;7.930;2022-08-04T02:28:39;23.90;99.90
14099;DHT22;7126;48.458;7.930;2022-08-04T02:37:21;23.70;99.90
14099;DHT22;7126;48.458;7.930;2022-08-04T02:39:52;23.70;99.90
14099;DHT22;7126;48.458;7.930;2022-08-04T02:42:18;23.60;99.90
14099;DHT22;7126;48.458;7.930;2022-08-04T02:44:49;23.70;99.90
14099;DHT22;7126;48.458;7.930;2022-08-04T02:47:18;23.60;99.90
14099;DHT22;7126;48.458;7.930;2022-08-04T02:49:44;23.70;99.90
14099;DHT22;7126;48.458;7.930;2022-08-04T02:52:12;23.60;99.90
14099;DHT22;7126;48.458;7.930;2022-08-04T02:54:40;23.60;99.90
14099;DHT22;7126;48.458;7.930;2022-08-04T02:57:10;23.60;99.90
14099;DHT22;7126;48.458;7.930;2022-08-04T02:59:48;23.60;99.90
14099;DHT22;7126;48.458;7.930;2022-08-04T03:02:32;23.60;99.90
14099;DHT22;7126;48.458;7.930;2022-08-04T03:05:16;23.60;99.90
14099;DHT22;7126;48.458;7.930;2022-08-04T03:13:54;23.60;99.90
14099;DHT22;7126;48.458;7.930;2022-08-04T03:17:05;23.60;99.90
14099;DHT22;7126;48.458;7.930;2022-08-04T03:42:38;23.60;99.90
14099;DHT22;7126;48.458;7.930;2022-08-04T03:48:32;23.50;99.90
14099;DHT22;7126;48.458;7.930;2022-08-04T03:51:01;23.40;99.90
14099;DHT22;7126;48.458;7.930;2022-08-04T03:54:25;23.30;99.90
14099;DHT22;7126;48.458;7.930;2022-08-04T04:05:22;23.00;99.90
14099;DHT22;7126;48.458;7.930;2022-08-04T04:07:58;23.10;99.90
14099;DHT22;7126;48.458;7.930;2022-08-04T04:10:58;23.00;99.90
14099;DHT22;7126;48.458;7.930;2022-08-04T04:17:04;23.00;99.90
14099;DHT22;7126;48.458;7.930;2022-08-04T04:36:54;22.80;99.90
14099;DHT22;7126;48.458;7.930;2022-08-04T04:48:07;22.90;99.90
14099;DHT22;7126;48.458;7.930;2022-08-04T04:59:00;22.70;99.90
14099;DHT22;7126;48.458;7.930;2022-08-04T05:01:43;22.70;99.90
14099;DHT22;7126;48.458;7.930;2022-08-04T05:04:25;22.70;99.90
14099;DHT22;7126;48.458;7.930;2022-08-04T05:10:02;22.80;99.90
14099;DHT22;7126;48.458;7.930;2022-08-04T05:15:14;22.70;99.90
14099;DHT22;7126;48.458;7.930;2022-08-04T05:17:44;22.70;99.90
14099;DHT22;7126;48.458;7.930;2022-08-04T05:20:22;22.70;99.90
14099;DHT22;7126;48.458;7.930;2022-08-04T05:22:54;22.80;99.90
14099;DHT22;7126;48.458;7.930;2022-08-04T05:25:45;22.90;99.90
14099;DHT22;7126;48.458;7.930;2022-08-04T05:29:01;23.00;99.90
14099;DHT22;7126;48.458;7.930;2022-08-04T05:31:05;23.00;99.90
14099;DHT22;7126;48.458;7.930;2022-08-04T05:33:52;23.10;99.90
14099;DHT22;7126;48.458;7.930;2022-08-04T05:36:21;23.10;99.90
14099;DHT22;7126;48.458;7.930;2022-08-04T05:38:51;23.20;99.90
14099;DHT22;7126;48.458;7.930;2022-08-04T05:41:18;23.20;99.90
14099;DHT22;7126;48.458;7.930;2022-08-04T05:43:44;23.20;99.90
14099;DHT22;7126;48.458;7.930;2022-08-04T05:46:11;23.30;99.90
14099;DHT22;7126;48.458;7.930;2022-08-04T05:48:38;23.30;99.90
14099;DHT22;7126;48.458;7.930;2022-08-04T05:51:06;23.50;99.90
14099;DHT22;7126;48.458;7.930;2022-08-04T05:53:33;23.50;99.90
14099;DHT22;7126;48.458;7.930;2022-08-04T05:56:00;23.50;99.90
14099;DHT22;7126;48.458;7.930;2022-08-04T05:58:30;23.60;99.90
14099;DHT22;7126;48.458;7.930;2022-08-04T06:00:58;23.70;99.90
14099;DHT22;7126;48.458;7.930;2022-08-04T06:03:25;23.80;99.90
14099;DHT22;7126;48.458;7.930;2022-08-04T06:05:52;23.90;99.90
14099;DHT22;7126;48.458;7.930;2022-08-04T06:08:18;23.90;99.90
14099;DHT22;7126;48.458;7.930;2022-08-04T06:10:45;24.00;99.90
14099;DHT22;7126;48.458;7.930;2022-08-04T06:13:14;24.10;99.90
14099;DHT22;7126;48.458;7.930;2022-08-04T06:15:43;24.10;99.90
14099;DHT22;7126;48.458;7.930;2022-08-04T06:18:11;24.20;99.90
14099;DHT22;7126;48.458;7.930;2022-08-04T06:20:40;24.30;99.90
14099;DHT22;7126;48.458;7.930;2022-08-04T06:23:10;24.30;99.90
14099;DHT22;7126;48.458;7.930;2022-08-04T06:25:45;24.40;99.90
14099;DHT22;7126;48.458;7.930;2022-08-04T06:28:12;24.40;99.90
14099;DHT22;7126;48.458;7.930;2022-08-04T06:30:39;24.50;99.90
14099;DHT22;7126;48.458;7.930;2022-08-04T06:33:07;24.50;99.90
14099;DHT22;7126;48.458;7.930;2022-08-04T06:35:50;24.60;99.90
14099;DHT22;7126;48.458;7.930;2022-08-04T06:38:19;24.60;99.90
14099;DHT22;7126;48.458;7.930;2022-08-04T06:40:45;24.70;99.90
14099;DHT22;7126;48.458;7.930;2022-08-04T06:43:11;24.80;99.90
14099;DHT22;7126;48.458;7.930;2022-08-04T06:45:38;24.90;99.90
14099;DHT22;7126;48.458;7.930;2022-08-04T06:48:06;25.00;99.90
14099;DHT22;7126;48.458;7.930;2022-08-04T06:50:34;25.00;99.90
14099;DHT22;7126;48.458;7.930;2022-08-04T06:53:00;25.10;99.90
14099;DHT22;7126;48.458;7.930;2022-08-04T06:55:27;25.20;99.90
14099;DHT22;7126;48.458;7.930;2022-08-04T06:57:53;25.30;99.90
14099;DHT22;7126;48.458;7.930;2022-08-04T07:00:19;25.40;99.90
14099;DHT22;7126;48.458;7.930;2022-08-04T07:02:48;25.50;99.90
14099;DHT22;7126;48.458;7.930;2022-08-04T07:05:16;25.60;99.90
14099;DHT22;7126;48.458;7.930;2022-08-04T07:07:43;25.70;99.90
14099;DHT22;7126;48.458;7.930;2022-08-04T07:10:09;25.80;99.90
14099;DHT22;7126;48.458;7.930;2022-08-04T07:12:36;25.90;99.90
14099;DHT22;7126;48.458;7.930;2022-08-04T07:15:03;25.90;99.90
14099;DHT22;7126;48.458;7.930;2022-08-04T07:17:30;26.10;99.90
14099;DHT22;7126;48.458;7.930;2022-08-04T07:19:56;26.10;99.90
14099;DHT22;7126;48.458;7.930;2022-08-04T07:22:24;26.30;99.90
14099;DHT22;7126;48.458;7.930;2022-08-04T07:24:54;26.40;99.90
14099;DHT22;7126;48.458;7.930;2022-08-04T07:27:21;26.50;99.90
14099;DHT22;7126;48.458;7.930;2022-08-04T07:29:47;26.50;99.90
14099;DHT22;7126;48.458;7.930;2022-08-04T07:32:13;26.60;99.90
14099;DHT22;7126;48.458;7.930;2022-08-04T07:34:41;26.70;99.90
14099;DHT22;7126;48.458;7.930;2022-08-04T07:37:06;26.80;99.90
14099;DHT22;7126;48.458;7.930;2022-08-04T07:39:32;26.90;99.90
14099;DHT22;7126;48.458;7.930;2022-08-04T07:42:02;27.00;99.90
14099;DHT22;7126;48.458;7.930;2022-08-04T07:44:29;27.10;99.90
14099;DHT22;7126;48.458;7.930;2022-08-04T07:46:55;27.20;99.90
14099;DHT22;7126;48.458;7.930;2022-08-04T07:49:21;27.30;99.90
14099;DHT22;7126;48.458;7.930;2022-08-04T07:51:46;27.30;99.90
14099;DHT22;7126;48.458;7.930;2022-08-04T07:54:14;27.40;99.90
14099;DHT22;7126;48.458;7.930;2022-08-04T07:56:40;27.40;99.90
14099;DHT22;7126;48.458;7.930;2022-08-04T07:59:06;27.50;99.90
14099;DHT22;7126;48.458;7.930;2022-08-04T08:01:35;27.60;99.90
14099;DHT22;7126;48.458;7.930;2022-08-04T08:04:04;27.70;99.90
14099;DHT22;7126;48.458;7.930;2022-08-04T08:06:30;27.80;99.90
14099;DHT22;7126;48.458;7.930;2022-08-04T08:08:57;27.90;99.90
14099;DHT22;7126;48.458;7.930;2022-08-04T08:11:25;28.00;99.90
14099;DHT22;7126;48.458;7.930;2022-08-04T08:13:51;28.10;99.90
14099;DHT22;7126;48.458;7.930;2022-08-04T08:16:18;28.10;99.90
14099;DHT22;7126;48.458;7.930;2022-08-04T08:18:45;28.20;99.90
14099;DHT22;7126;48.458;7.930;2022-08-04T08:21:12;28.30;99.90
14099;DHT22;7126;48.458;7.930;2022-08-04T08:23:38;28.30;99.90
14099;DHT22;7126;48.458;7.930;2022-08-04T08:26:05;28.40;99.90
14099;DHT22;7126;48.458;7.930;2022-08-04T08:28:31;28.60;99.90
14099;DHT22;7126;48.458;7.930;2022-08-04T08:30:56;28.70;99.90
14099;DHT22;7126;48.458;7.930;2022-08-04T08:33:23;28.80;99.90
14099;DHT22;7126;48.458;7.930;2022-08-04T08:35:55;28.90;99.90
14099;DHT22;7126;48.458;7.930;2022-08-04T08:41:19;29.00;99.90
14099;DHT22;7126;48.458;7.930;2022-08-04T08:51:49;29.60;99.90
14099;DHT22;7126;48.458;7.930;2022-08-04T08:57:45;30.00;99.90
14099;DHT22;7126;48.458;7.930;2022-08-04T09:00:22;30.00;99.90
14099;DHT22;7126;48.458;7.930;2022-08-04T09:11:14;30.30;99.90
14099;DHT22;7126;48.458;7.930;2022-08-04T09:13:47;30.40;99.90
14099;DHT22;7126;48.458;7.930;2022-08-04T09:16:48;30.50;99.90
14099;DHT22;7126;48.458;7.930;2022-08-04T09:19:37;30.60;99.90
14099;DHT22;7126;48.458;7.930;2022-08-04T09:24:49;30.80;99.90
14099;DHT22;7126;48.458;7.930;2022-08-04T09:27:19;31.00;99.90
14099;DHT22;7126;48.458;7.930;2022-08-04T09:30:08;31.10;99.90
14099;DHT22;7126;48.458;7.930;2022-08-04T09:37:59;31.40;99.80
14099;DHT22;7126;48.458;7.930;2022-08-04T09:40:31;31.50;99.40
14099;DHT22;7126;48.458;7.930;2022-08-04T09:46:14;31.70;98.90
14099;DHT22;7126;48.458;7.930;2022-08-04T09:51:35;31.90;99.20
14099;DHT22;7126;48.458;7.930;2022-08-04T09:54:18;32.10;98.00
14099;DHT22;7126;48.458;7.930;2022-08-04T09:57:12;32.30;97.30
14099;DHT22;7126;48.458;7.930;2022-08-04T10:02:31;32.40;96.50
14099;DHT22;7126;48.458;7.930;2022-08-04T10:04:58;32.60;96.60
14099;DHT22;7126;48.458;7.930;2022-08-04T10:10:18;32.70;96.20
14099;DHT22;7126;48.458;7.930;2022-08-04T10:15:50;32.90;95.50
14099;DHT22;7126;48.458;7.930;2022-08-04T10:29:15;33.50;92.70
14099;DHT22;7126;48.458;7.930;2022-08-04T10:31:52;33.60;93.00
14099;DHT22;7126;48.458;7.930;2022-08-04T10:34:20;33.70;91.80
14099;DHT22;7126;48.458;7.930;2022-08-04T10:36:59;33.70;92.40
14099;DHT22;7126;48.458;7.930;2022-08-04T10:39:41;34.00;90.30
14099;DHT22;7126;48.458;7.930;2022-08-04T10:42:29;34.10;87.60
14099;DHT22;7126;48.458;7.930;2022-08-04T10:45:04;34.20;88.60
14099;DHT22;7126;48.458;7.930;2022-08-04T10:47:36;34.30;89.30
14099;DHT22;7126;48.458;7.930;2022-08-04T10:50:04;34.40;88.50
14099;DHT22;7126;48.458;7.930;2022-08-04T10:52:37;34.60;86.20
14099;DHT22;7126;48.458;7.930;2022-08-04T10:55:12;34.70;86.50
14099;DHT22;7126;48.458;7.930;2022-08-04T10:57:50;34.80;85.80
14099;DHT22;7126;48.458;7.930;2022-08-04T11:00:23;35.00;80.80
14099;DHT22;7126;48.458;7.930;2022-08-04T11:03:12;35.00;81.20
14099;DHT22;7126;48.458;7.930;2022-08-04T11:06:08;35.10;80.50
14099;DHT22;7126;48.458;7.930;2022-08-04T11:08:47;35.20;80.40
14099;DHT22;7126;48.458;7.930;2022-08-04T11:11:34;35.40;75.30
14099;DHT22;7126;48.458;7.930;2022-08-04T11:14:07;35.50;77.90
14099;DHT22;7126;48.458;7.930;2022-08-04T11:16:45;35.60;73.80
14099;DHT22;7126;48.458;7.930;2022-08-04T11:19:41;35.70;74.50
14099;DHT22;7126;48.458;7.930;2022-08-04T11:22:25;35.80;76.50
14099;DHT22;7126;48.458;7.930;2022-08-04T11:25:18;36.00;75.60
14099;DHT22;7126;48.458;7.930;2022-08-04T11:30:34;36.50;75.70
14099;DHT22;7126;48.458;7.930;2022-08-04T11:36:14;36.70;68.70
14099;DHT22;7126;48.458;7.930;2022-08-04T11:39:27;36.60;67.70
14099;DHT22;7126;48.458;7.930;2022-08-04T11:42:05;36.60;66.90
14099;DHT22;7126;48.458;7.930;2022-08-04T11:49:45;36.90;67.40
14099;DHT22;7126;48.458;7.930;2022-08-04T11:52:13;37.00;70.10
14099;DHT22;7126;48.458;7.930;2022-08-04T11:54:40;37.10;61.40
14099;DHT22;7126;48.458;7.930;2022-08-04T11:57:07;37.00;62.80
14099;DHT22;7126;48.458;7.930;2022-08-04T11:59:34;37.10;63.30
14099;DHT22;7126;48.458;7.930;2022-08-04T12:05:06;37.30;65.50
14099;DHT22;7126;48.458;7.930;2022-08-04T12:10:32;37.70;66.60
14099;DHT22;7126;48.458;7.930;2022-08-04T12:18:56;38.00;68.00
14099;DHT22;7126;48.458;7.930;2022-08-04T12:24:12;38.10;63.40
14099;DHT22;7126;48.458;7.930;2022-08-04T12:26:44;37.90;58.80
14099;DHT22;7126;48.458;7.930;2022-08-04T12:29:13;37.90;60.70
14099;DHT22;7126;48.458;7.930;2022-08-04T12:40:25;38.10;60.30
14099;DHT22;7126;48.458;7.930;2022-08-04T12:43:07;38.10;60.30
14099;DHT22;7126;48.458;7.930;2022-08-04T12:45:33;38.10;59.90
14099;DHT22;7126;48.458;7.930;2022-08-04T12:48:00;38.20;58.30
14099;DHT22;7126;48.458;7.930;2022-08-04T12:50:29;38.20;58.50
14099;DHT22;7126;48.458;7.930;2022-08-04T12:52:57;38.20;60.10
14099;DHT22;7126;48.458;7.930;2022-08-04T12:55:26;38.30;59.60
14099;DHT22;7126;48.458;7.930;2022-08-04T12:57:53;38.30;58.60
14099;DHT22;7126;48.458;7.930;2022-08-04T13:00:37;38.30;57.90
14099;DHT22;7126;48.458;7.930;2022-08-04T13:03:10;38.30;57.60
14099;DHT22;7126;48.458;7.930;2022-08-04T13:05:37;38.20;56.50
14099;DHT22;7126;48.458;7.930;2022-08-04T13:08:05;38.20;57.90
14099;DHT22;7126;48.458;7.930;2022-08-04T13:10:36;38.10;57.90
14099;DHT22;7126;48.458;7.930;2022-08-04T13:13:04;38.10;57.90
14099;DHT22;7126;48.458;7.930;2022-08-04T13:15:30;38.00;60.60
14099;DHT22;7126;48.458;7.930;2022-08-04T13:18:02;38.20;58.90
14099;DHT22;7126;48.458;7.930;2022-08-04T13:20:30;38.20;59.20
14099;DHT22;7126;48.458;7.930;2022-08-04T13:23:05;38.30;57.30
14099;DHT22;7126;48.458;7.930;2022-08-04T13:25:33;38.30;57.40
14099;DHT22;7126;48.458;7.930;2022-08-04T13:28:00;38.30;58.80
14099;DHT22;7126;48.458;7.930;2022-08-04T13:30:27;38.30;56.50
14099;DHT22;7126;48.458;7.930;2022-08-04T13:32:57;38.30;59.70
14099;DHT22;7126;48.458;7.930;2022-08-04T13:35:24;38.30;56.20
14099;DHT22;7126;48.458;7.930;2022-08-04T13:37:51;38.30;56.50
14099;DHT22;7126;48.458;7.930;2022-08-04T13:40:21;38.40;57.10
14099;DHT22;7126;48.458;7.930;2022-08-04T13:42:48;38.40;57.10
14099;DHT22;7126;48.458;7.930;2022-08-04T13:45:22;38.40;58.20
14099;DHT22;7126;48.458;7.930;2022-08-04T13:47:50;38.40;58.10
14099;DHT22;7126;48.458;7.930;2022-08-04T13:50:23;38.40;56.40
14099;DHT22;7126;48.458;7.930;2022-08-04T13:52:56;38.30;57.10
14099;DHT22;7126;48.458;7.930;2022-08-04T13:58:08;38.40;56.50
14099;DHT22;7126;48.458;7.930;2022-08-04T14:03:24;38.40;56.40
14099;DHT22;7126;48.458;7.930;2022-08-04T14:08:55;38.50;56.60
14099;DHT22;7126;48.458;7.930;2022-08-04T14:11:30;38.50;57.50
14099;DHT22;7126;48.458;7.930;2022-08-04T14:13:57;38.60;57.90
14099;DHT22;7126;48.458;7.930;2022-08-04T14:16:22;38.60;56.90
14099;DHT22;7126;48.458;7.930;2022-08-04T14:19:00;38.60;56.70
14099;DHT22;7126;48.458;7.930;2022-08-04T14:21:35;38.60;55.80
14099;DHT22;7126;48.458;7.930;2022-08-04T14:24:00;38.40;56.10
14099;DHT22;7126;48.458;7.930;2022-08-04T14:26:28;38.40;57.00
14099;DHT22;7126;48.458;7.930;2022-08-04T14:28:56;38.40;58.60
14099;DHT22;7126;48.458;7.930;2022-08-04T14:31:30;38.50;59.50
14099;DHT22;7126;48.458;7.930;2022-08-04T14:33:56;38.50;59.90
14099;DHT22;7126;48.458;7.930;2022-08-04T14:36:22;38.50;55.80
14099;DHT22;7126;48.458;7.930;2022-08-04T14:38:55;38.40;57.30
14099;DHT22;7126;48.458;7.930;2022-08-04T14:41:24;38.40;59.10
14099;DHT22;7126;48.458;7.930;2022-08-04T14:43:51;38.50;60.10
14099;DHT22;7126;48.458;7.930;2022-08-04T14:46:17;38.60;59.50
14099;DHT22;7126;48.458;7.930;2022-08-04T14:51:26;38.50;57.70
14099;DHT22;7126;48.458;7.930;2022-08-04T14:53:53;38.50;59.00
14099;DHT22;7126;48.458;7.930;2022-08-04T14:56:19;38.40;59.10
14099;DHT22;7126;48.458;7.930;2022-08-04T14:58:46;38.40;60.40
14099;DHT22;7126;48.458;7.930;2022-08-04T15:01:22;38.30;56.10
14099;DHT22;7126;48.458;7.930;2022-08-04T15:03:48;38.10;56.80
14099;DHT22;7126;48.458;7.930;2022-08-04T15:06:13;38.00;57.90
14099;DHT22;7126;48.458;7.930;2022-08-04T15:08:39;38.00;58.10
14099;DHT22;7126;48.458;7.930;2022-08-04T15:11:05;38.10;56.70
14099;DHT22;7126;48.458;7.930;2022-08-04T15:13:31;38.10;55.90
14099;DHT22;7126;48.458;7.930;2022-08-04T15:15:57;38.00;56.50
14099;DHT22;7126;48.458;7.930;2022-08-04T15:18:22;38.00;56.50
14099;DHT22;7126;48.458;7.930;2022-08-04T15:20:50;38.00;57.20
14099;DHT22;7126;48.458;7.930;2022-08-04T15:23:16;38.10;57.60
14099;DHT22;7126;48.458;7.930;2022-08-04T15:25:45;38.10;58.50
14099;DHT22;7126;48.458;7.930;2022-08-04T15:28:17;38.00;57.10
14099;DHT22;7126;48.458;7.930;2022-08-04T15:30:44;38.00;57.80
14099;DHT22;7126;48.458;7.930;2022-08-04T15:33:12;38.00;57.70
14099;DHT22;7126;48.458;7.930;2022-08-04T15:35:39;37.90;58.20
14099;DHT22;7126;48.458;7.930;2022-08-04T15:38:26;37.90;57.70
14099;DHT22;7126;48.458;7.930;2022-08-04T15:46:09;37.80;57.70
14099;DHT22;7126;48.458;7.930;2022-08-04T15:48:35;37.80;59.10
14099;DHT22;7126;48.458;7.930;2022-08-04T15:51:07;37.70;57.50
14099;DHT22;7126;48.458;7.930;2022-08-04T15:58:50;37.60;57.90
14099;DHT22;7126;48.458;7.930;2022-08-04T16:01:17;37.50;56.70
14099;DHT22;7126;48.458;7.930;2022-08-04T16:03:48;37.40;57.60
14099;DHT22;7126;48.458;7.930;2022-08-04T16:11:35;37.30;57.80
14099;DHT22;7126;48.458;7.930;2022-08-04T16:21:52;37.10;58.10
14099;DHT22;7126;48.458;7.930;2022-08-04T16:26:47;37.00;58.00
14099;DHT22;7126;48.458;7.930;2022-08-04T16:34:40;36.80;58.70
14099;DHT22;7126;48.458;7.930;2022-08-04T16:37:10;36.70;57.50
14099;DHT22;7126;48.458;7.930;2022-08-04T16:39:36;36.70;58.60
14099;DHT22;7126;48.458;7.930;2022-08-04T16:48:00;36.60;58.50
14099;DHT22;7126;48.458;7.930;2022-08-04T16:50:27;36.50;58.70
14099;DHT22;7126;48.458;7.930;2022-08-04T16:52:54;36.50;59.10
14099;DHT22;7126;48.458;7.930;2022-08-04T16:55:24;36.40;58.90
14099;DHT22;7126;48.458;7.930;2022-08-04T16:57:51;36.30;59.00
14099;DHT22;7126;48.458;7.930;2022-08-04T17:00:33;36.20;59.30
14099;DHT22;7126;48.458;7.930;2022-08-04T17:03:03;36.10;59.70
14099;DHT22;7126;48.458;7.930;2022-08-04T17:05:30;36.10;59.10
14099;DHT22;7126;48.458;7.930;2022-08-04T17:07:57;36.00;59.70
14099;DHT22;7126;48.458;7.930;2022-08-04T17:10:38;36.00;59.90
14099;DHT22;7126;48.458;7.930;2022-08-04T17:15:52;35.80;59.50
14099;DHT22;7126;48.458;7.930;2022-08-04T17:18:20;35.70;61.00
14099;DHT22;7126;48.458;7.930;2022-08-04T17:20:47;35.60;60.90
14099;DHT22;7126;48.458;7.930;2022-08-04T17:23:35;35.50;60.20
14099;DHT22;7126;48.458;7.930;2022-08-04T17:26:22;35.50;60.90
14099;DHT22;7126;48.458;7.930;2022-08-04T17:28:50;35.40;61.40
14099;DHT22;7126;48.458;7.930;2022-08-04T17:31:16;35.30;60.80
14099;DHT22;7126;48.458;7.930;2022-08-04T17:33:49;35.30;61.30
14099;DHT22;7126;48.458;7.930;2022-08-04T17:36:15;35.20;61.40
14099;DHT22;7126;48.458;7.930;2022-08-04T17:38:53;35.20;61.80
14099;DHT22;7126;48.458;7.930;2022-08-04T17:41:21;35.20;61.50
14099;DHT22;7126;48.458;7.930;2022-08-04T17:46:33;35.00;62.40
14099;DHT22;7126;48.458;7.930;2022-08-04T17:53:58;34.90;63.60
14099;DHT22;7126;48.458;7.930;2022-08-04T18:02:02;34.60;66.00
14099;DHT22;7126;48.458;7.930;2022-08-04T18:06:57;34.40;65.60
14099;DHT22;7126;48.458;7.930;2022-08-04T18:09:27;34.30;66.90
14099;DHT22;7126;48.458;7.930;2022-08-04T18:12:05;34.20;67.90
14099;DHT22;7126;48.458;7.930;2022-08-04T18:14:39;34.10;69.90
14099;DHT22;7126;48.458;7.930;2022-08-04T18:17:05;34.00;72.00
14099;DHT22;7126;48.458;7.930;2022-08-04T18:19:31;33.80;72.30
14099;DHT22;7126;48.458;7.930;2022-08-04T18:21:57;33.70;75.90
14099;DHT22;7126;48.458;7.930;2022-08-04T18:24:23;33.50;77.90
14099;DHT22;7126;48.458;7.930;2022-08-04T18:26:49;33.40;79.60
14099;DHT22;7126;48.458;7.930;2022-08-04T18:29:16;33.20;80.70
14099;DHT22;7126;48.458;7.930;2022-08-04T18:31:41;33.10;82.30
14099;DHT22;7126;48.458;7.930;2022-08-04T18:34:07;32.90;83.60
14099;DHT22;7126;48.458;7.930;2022-08-04T18:36:34;32.80;84.90
14099;DHT22;7126;48.458;7.930;2022-08-04T18:39:01;32.70;86.30
14099;DHT22;7126;48.458;7.930;2022-08-04T18:41:27;32.50;88.60
14099;DHT22;7126;48.458;7.930;2022-08-04T18:43:54;32.40;88.80
14099;DHT22;7126;48.458;7.930;2022-08-04T18:46:21;32.30;88.60
14099;DHT22;7126;48.458;7.930;2022-08-04T18:48:46;32.20;89.30
14099;DHT22;7126;48.458;7.930;2022-08-04T18:51:12;32.10;89.00
14099;DHT22;7126;48.458;7.930;2022-08-04T18:53:38;32.00;90.00
14099;DHT22;7126;48.458;7.930;2022-08-04T18:56:04;31.90;90.40
14099;DHT22;7126;48.458;7.930;2022-08-04T18:58:30;31.80;90.70
14099;DHT22;7126;48.458;7.930;2022-08-04T19:00:55;31.70;90.60
14099;DHT22;7126;48.458;7.930;2022-08-04T19:03:21;31.60;90.80
14099;DHT22;7126;48.458;7.930;2022-08-04T19:05:47;31.50;90.70
14099;DHT22;7126;48.458;7.930;2022-08-04T19:08:13;31.40;89.90
14099;DHT22;7126;48.458;7.930;2022-08-04T19:10:38;31.40;91.30
14099;DHT22;7126;48.458;7.930;2022-08-04T19:13:04;31.30;91.40
14099;DHT22;7126;48.458;7.930;2022-08-04T19:15:29;31.30;88.80
14099;DHT22;7126;48.458;7.930;2022-08-04T19:17:56;31.20;89.10
14099;DHT22;7126;48.458;7.930;2022-08-04T19:20:22;31.10;90.40
14099;DHT22;7126;48.458;7.930;2022-08-04T19:22:48;31.10;88.60
14099;DHT22;7126;48.458;7.930;2022-08-04T19:25:13;31.00;91.30
14099;DHT22;7126;48.458;7.930;2022-08-04T19:27:39;31.00;91.40
14099;DHT22;7126;48.458;7.930;2022-08-04T19:30:05;30.90;91.60
14099;DHT22;7126;48.458;7.930;2022-08-04T19:32:31;30.90;91.80
14099;DHT22;7126;48.458;7.930;2022-08-04T19:34:57;30.80;90.70
14099;DHT22;7126;48.458;7.930;2022-08-04T19:37:22;30.80;92.50
14099;DHT22;7126;48.458;7.930;2022-08-04T19:39:48;30.70;90.60
14099;DHT22;7126;48.458;7.930;2022-08-04T19:42:15;30.60;92.10
14099;DHT22;7126;48.458;7.930;2022-08-04T19:44:41;30.50;90.90
14099;DHT22;7126;48.458;7.930;2022-08-04T19:47:06;30.50;91.50
14099;DHT22;7126;48.458;7.930;2022-08-04T19:49:32;30.40;92.00
14099;DHT22;7126;48.458;7.930;2022-08-04T19:51:58;30.40;92.00
14099;DHT22;7126;48.458;7.930;2022-08-04T19:54:24;30.30;91.80
14099;DHT22;7126;48.458;7.930;2022-08-04T19:56:50;30.30;92.60
14099;DHT22;7126;48.458;7.930;2022-08-04T19:59:15;30.20;91.90
14099;DHT22;7126;48.458;7.930;2022-08-04T20:01:41;30.10;91.60
14099;DHT22;7126;48.458;7.930;2022-08-04T20:04:06;30.10;91.90
14099;DHT22;7126;48.458;7.930;2022-08-04T20:06:32;30.00;91.40
14099;DHT22;7126;48.458;7.930;2022-08-04T20:08:58;30.00;90.40
14099;DHT22;7126;48.458;7.930;2022-08-04T20:11:23;30.10;89.80
14099;DHT22;7126;48.458;7.930;2022-08-04T20:13:49;30.00;91.00
14099;DHT22;7126;48.458;7.930;2022-08-04T20:16:14;30.00;91.10
14099;DHT22;7126;48.458;7.930;2022-08-04T20:18:41;30.00;91.70
14099;DHT22;7126;48.458;7.930;2022-08-04T20:21:07;29.90;91.10
14099;DHT22;7126;48.458;7.930;2022-08-04T20:23:33;29.90;91.10
14099;DHT22;7126;48.458;7.930;2022-08-04T20:25:58;29.80;91.00
14099;DHT22;7126;48.458;7.930;2022-08-04T20:28:24;29.80;90.20
14099;DHT22;7126;48.458;7.930;2022-08-04T20:30:52;29.70;91.00
14099;DHT22;7126;48.458;7.930;2022-08-04T20:33:18;29.70;90.10
14099;DHT22;7126;48.458;7.930;2022-08-04T20:35:44;29.60;90.00
14099;DHT22;7126;48.458;7.930;2022-08-04T20:38:10;29.50;90.60
14099;DHT22;7126;48.458;7.930;2022-08-04T20:40:35;29.50;90.10
14099;DHT22;7126;48.458;7.930;2022-08-04T20:43:01;29.40;90.20
14099;DHT22;7126;48.458;7.930;2022-08-04T20:45:26;29.40;90.50
14099;DHT22;7126;48.458;7.930;2022-08-04T20:47:52;29.30;91.30
14099;DHT22;7126;48.458;7.930;2022-08-04T20:50:18;29.30;91.20
14099;DHT22;7126;48.458;7.930;2022-08-04T20:52:43;29.30;91.80
14099;DHT22;7126;48.458;7.930;2022-08-04T20:55:10;29.30;91.40
14099;DHT22;7126;48.458;7.930;2022-08-04T20:57:36;29.20;92.00
14099;DHT22;7126;48.458;7.930;2022-08-04T21:00:03;29.20;91.70